Flight Track Log - Related Links

Times and Time Zones

All times are in EDT time to prevent confusion due to time zone crossing. See the N634K flight status page for this flight to view local times or setup timezone preferences in your user account.

Time Position Orientation Groundspeed Altitude Reporting Facility
EDT Latitude Longitude Course Direction KTS MPH feet Rate Location/Type
Thu 02:43:27 PM 37.5308 -82.6697 287° West 136 157 3,500  Level Indianapolis Center
Thu 02:44:29 PM 37.5406 -82.7100 287° West 129 148 3,900 484 Climbing Indianapolis Center
Thu 02:45:31 PM 37.5561 -82.7625 291° West 131 151 4,500 581 Climbing Indianapolis Center
Thu 02:46:33 PM 37.5681 -82.8103 288° West 137 158 5,100 581 Climbing Indianapolis Center
Thu 02:47:35 PM 37.5800 -82.8592 287° West 141 162 5,700 290 Climbing Indianapolis Center
Thu 02:48:37 PM 37.5911 -82.9097 286° West 145 167 5,700 48 Level Indianapolis Center
Thu 02:49:39 PM 37.6042 -82.9631 287° West 152 175 5,800 97 Climbing Indianapolis Center
Thu 02:50:41 PM 37.6189 -83.0233 287° West 154 177 5,900 -194 Climbing Indianapolis Center
Thu 02:51:43 PM 37.6314 -83.0736 287° West 152 175 5,400 -484 Descending Indianapolis Center
Thu 02:52:45 PM 37.6528 -83.1269 297° West 164 189 4,900 -484 Descending Indianapolis Center
Thu 02:53:47 PM 37.6839 -83.1772 308° West 176 203 4,400 -435 Descending Indianapolis Center
Thu 02:54:49 PM 37.6956 -83.2322 285° West 168 193 4,000 -145 Descending Indianapolis Center
Thu 02:55:51 PM 37.7056 -83.2942 282° West 161 185 4,100  Climbing Indianapolis Center
Thu 02:56:53 PM 37.7181 -83.3444 287° West 156 180 4,000 -48 Descending Indianapolis Center
Thu 02:57:55 PM 37.7294 -83.3931 287° West 150 173 4,000  Level Indianapolis Center
Thu 02:58:57 PM 37.7403 -83.4422 286° West 147 169 4,000  Level Indianapolis Center
Thu 02:59:59 PM 37.7525 -83.4933 287° West 149 171 4,000  Level Indianapolis Center
Thu 03:01:02 PM 37.7656 -83.5528 286° West 149 171 4,000  Level Indianapolis Center
Thu 03:02:04 PM 37.7781 -83.6050 287° West 152 175 4,000 -48 Level Indianapolis Center
Thu 03:03:06 PM 37.7894 -83.6578 285° West 154 177 3,900 -48 Descending Indianapolis Center
Thu 03:04:08 PM 37.8022 -83.7100 287° West 155 178 3,900  Level Indianapolis Center
Thu 03:05:10 PM 37.8133 -83.7608 285° West 153 176 3,900 48 Level Indianapolis Center
Thu 03:06:12 PM 37.8236 -83.8092 285° West 148 170 4,000 48 Climbing Indianapolis Center
Thu 03:07:14 PM 37.8369 -83.8653 287° West 145 167 4,000  Level Indianapolis Center
Thu 03:08:16 PM 37.8489 -83.9150 287° West 145 167 4,000  Level Indianapolis Center
Thu 03:09:18 PM 37.8617 -83.9686 287° West 152 175 4,000  Level Indianapolis Center
Thu 03:10:20 PM 37.8728 -84.0219 285° West 155 178 4,000  Level Indianapolis Center
Thu 03:11:22 PM 37.8836 -84.0728 285° West 152 175 4,000  Level Indianapolis Center
Thu 03:12:24 PM 37.8972 -84.1342 286° West 154 177 4,000  Level Indianapolis Center
Thu 03:13:26 PM 37.9086 -84.1861 286° West 154 177 4,000  Level Indianapolis Center
Thu 03:14:28 PM 37.9206 -84.2369 287° West 152 175 4,000  Level Indianapolis Center
Thu 03:15:30 PM 37.9308 -84.2856 285° West 148 170 4,000  Level Indianapolis Center
Thu 03:16:32 PM 37.9417 -84.3367 285° West 147 169 4,000  Level Indianapolis Center
Thu 03:17:34 PM 37.9528 -84.3875 286° West 149 171 4,000  Level Indianapolis Center
Thu 03:18:36 PM 37.9672 -84.4483 287° West 153 176 4,000  Level Indianapolis Center
Thu 03:19:39 PM 37.9792 -84.5003 286° West 152 175 4,000  Level Indianapolis Center
Thu 03:20:41 PM 37.9903 -84.5506 286° West 151 174 4,000  Level Indianapolis Center
Thu 03:21:43 PM 38.0008 -84.6000 285° West 148 170 4,000  Level Indianapolis Center
Thu 03:22:45 PM 38.0133 -84.6514 287° West 150 173 4,000  Level Indianapolis Center
Thu 03:23:47 PM 38.0253 -84.7122 284° West 151 174 4,000  Level Indianapolis Center
Thu 03:24:49 PM 38.0381 -84.7631 288° West 152 175 4,000  Level Indianapolis Center
Thu 03:25:51 PM 38.0486 -84.8153 284° West 152 175 4,000  Level Indianapolis Center
Thu 03:26:53 PM 38.0603 -84.8675 286° West 153 176 4,000  Level Indianapolis Center
Thu 03:27:55 PM 38.0714 -84.9211 285° West 155 178 4,000  Level Indianapolis Center
Thu 03:28:57 PM 38.0847 -84.9806 286° West 153 176 4,000  Level Indianapolis Center
Thu 03:29:59 PM 38.0950 -85.0319 284° West 151 174 4,000  Level Indianapolis Center
Thu 03:31:01 PM 38.1044 -85.0733 286° West 149 171 4,000 -73 Level Indianapolis Center
Thu 03:32:43 PM 38.1167 -85.1667 279° West 156 180 3,800 -256 Descending Louisville TRACON
Thu 03:34:00 PM 38.1297 -85.2315 284° West  Level FlightAware Approximate
Thu 03:34:55 PM 38.1500 -85.3000 284° West 160 184 3,000  Level Louisville TRACON
Thu 03:36:00 PM 38.1580 -85.3556 280° West  Level FlightAware Approximate
Thu 03:37:58 PM 38.1833 -85.4667 288° West 170 196 2,500  Level Louisville TRACON
Thu 03:39:00 PM 38.1909 -85.5197 280° West  Level FlightAware Approximate
Thu 03:40:43 PM 38.2333 -85.5833 280° West 140 161 1,700  Level Louisville TRACON
Thu 03:42:00 PM 38.2167 -85.6500 288° West  Level FlightAware Approximate
Thu 03:43:00 PM 38.2167 -85.6500 288° West  Level FlightAware Approximate
Thu 03:49:00 PM 38.2280 -85.6637 288° West  Level Estimated
Thu 03:50:00 PM 38.2280 -85.6637 288° West  Level Estimated

Login

Don't have an account? Register now (free) for customized features, flight alerts, and more!